sensor_id;sensor_type;location;lat;lon;timestamp;P1;durP1;ratioP1;P2;durP2;ratioP2
29196;SDS011;62796;42.654;23.316;2023-04-15T00:01:25;11.48;;;5.95;;
29196;SDS011;62796;42.654;23.316;2023-04-15T00:03:51;11.43;;;6.18;;
29196;SDS011;62796;42.654;23.316;2023-04-15T00:06:18;10.02;;;5.43;;
29196;SDS011;62796;42.654;23.316;2023-04-15T00:08:44;12.70;;;6.80;;
29196;SDS011;62796;42.654;23.316;2023-04-15T00:11:10;12.95;;;6.20;;
29196;SDS011;62796;42.654;23.316;2023-04-15T00:13:36;10.57;;;6.07;;
29196;SDS011;62796;42.654;23.316;2023-04-15T00:16:02;12.25;;;5.70;;
29196;SDS011;62796;42.654;23.316;2023-04-15T00:18:28;15.57;;;6.18;;
29196;SDS011;62796;42.654;23.316;2023-04-15T00:20:54;9.50;;;5.70;;
29196;SDS011;62796;42.654;23.316;2023-04-15T00:23:19;11.57;;;6.00;;
29196;SDS011;62796;42.654;23.316;2023-04-15T00:25:45;12.98;;;6.22;;
29196;SDS011;62796;42.654;23.316;2023-04-15T00:28:11;11.32;;;6.00;;
29196;SDS011;62796;42.654;23.316;2023-04-15T00:30:36;11.55;;;6.50;;
29196;SDS011;62796;42.654;23.316;2023-04-15T00:33:02;9.40;;;5.85;;
29196;SDS011;62796;42.654;23.316;2023-04-15T00:35:27;10.93;;;6.57;;
29196;SDS011;62796;42.654;23.316;2023-04-15T00:37:53;11.57;;;6.53;;
29196;SDS011;62796;42.654;23.316;2023-04-15T00:40:20;11.45;;;6.55;;
29196;SDS011;62796;42.654;23.316;2023-04-15T00:42:45;12.23;;;6.43;;
29196;SDS011;62796;42.654;23.316;2023-04-15T00:45:11;13.32;;;6.32;;
29196;SDS011;62796;42.654;23.316;2023-04-15T00:47:37;14.50;;;6.30;;
29196;SDS011;62796;42.654;23.316;2023-04-15T00:50:05;10.77;;;6.20;;
29196;SDS011;62796;42.654;23.316;2023-04-15T00:52:31;13.20;;;6.82;;
29196;SDS011;62796;42.654;23.316;2023-04-15T00:54:57;11.50;;;6.13;;
29196;SDS011;62796;42.654;23.316;2023-04-15T00:57:22;14.18;;;6.97;;
29196;SDS011;62796;42.654;23.316;2023-04-15T00:59:48;12.93;;;6.32;;
29196;SDS011;62796;42.654;23.316;2023-04-15T01:02:15;9.45;;;5.25;;
29196;SDS011;62796;42.654;23.316;2023-04-15T01:04:40;10.15;;;5.38;;
29196;SDS011;62796;42.654;23.316;2023-04-15T01:07:06;12.10;;;5.90;;
29196;SDS011;62796;42.654;23.316;2023-04-15T01:09:32;11.48;;;5.07;;
29196;SDS011;62796;42.654;23.316;2023-04-15T01:11:57;8.77;;;5.10;;
29196;SDS011;62796;42.654;23.316;2023-04-15T01:14:23;7.30;;;4.35;;
29196;SDS011;62796;42.654;23.316;2023-04-15T01:16:49;11.98;;;5.05;;
29196;SDS011;62796;42.654;23.316;2023-04-15T01:19:16;7.80;;;5.40;;
29196;SDS011;62796;42.654;23.316;2023-04-15T01:21:42;8.70;;;5.40;;
29196;SDS011;62796;42.654;23.316;2023-04-15T01:24:09;10.60;;;5.55;;
29196;SDS011;62796;42.654;23.316;2023-04-15T01:26:38;7.95;;;5.20;;
29196;SDS011;62796;42.654;23.316;2023-04-15T01:29:04;5.55;;;4.47;;
29196;SDS011;62796;42.654;23.316;2023-04-15T01:31:30;8.15;;;4.00;;
29196;SDS011;62796;42.654;23.316;2023-04-15T01:33:56;9.05;;;4.63;;
29196;SDS011;62796;42.654;23.316;2023-04-15T01:36:22;12.15;;;5.35;;
29196;SDS011;62796;42.654;23.316;2023-04-15T01:38:47;11.35;;;4.97;;
29196;SDS011;62796;42.654;23.316;2023-04-15T01:41:13;12.20;;;5.20;;
29196;SDS011;62796;42.654;23.316;2023-04-15T01:43:38;10.02;;;5.05;;
29196;SDS011;62796;42.654;23.316;2023-04-15T01:46:04;13.63;;;5.90;;
29196;SDS011;62796;42.654;23.316;2023-04-15T01:48:30;13.82;;;6.38;;
29196;SDS011;62796;42.654;23.316;2023-04-15T01:50:56;9.55;;;5.22;;
29196;SDS011;62796;42.654;23.316;2023-04-15T01:53:25;8.10;;;4.97;;
29196;SDS011;62796;42.654;23.316;2023-04-15T01:55:51;10.50;;;6.30;;
29196;SDS011;62796;42.654;23.316;2023-04-15T01:58:17;12.02;;;5.97;;
29196;SDS011;62796;42.654;23.316;2023-04-15T02:00:43;11.25;;;5.45;;
29196;SDS011;62796;42.654;23.316;2023-04-15T02:03:09;19.02;;;9.48;;
29196;SDS011;62796;42.654;23.316;2023-04-15T02:05:34;12.48;;;6.35;;
29196;SDS011;62796;42.654;23.316;2023-04-15T02:08:00;9.35;;;4.80;;
29196;SDS011;62796;42.654;23.316;2023-04-15T02:10:26;9.55;;;5.18;;
29196;SDS011;62796;42.654;23.316;2023-04-15T02:12:51;11.80;;;4.40;;
29196;SDS011;62796;42.654;23.316;2023-04-15T02:15:18;6.25;;;3.60;;
29196;SDS011;62796;42.654;23.316;2023-04-15T02:17:44;8.70;;;4.38;;
29196;SDS011;62796;42.654;23.316;2023-04-15T02:20:14;9.02;;;4.60;;
29196;SDS011;62796;42.654;23.316;2023-04-15T02:22:40;6.50;;;4.30;;
29196;SDS011;62796;42.654;23.316;2023-04-15T02:25:06;7.43;;;4.30;;
29196;SDS011;62796;42.654;23.316;2023-04-15T02:27:32;9.73;;;5.05;;
29196;SDS011;62796;42.654;23.316;2023-04-15T02:29:57;7.15;;;3.85;;
29196;SDS011;62796;42.654;23.316;2023-04-15T02:32:23;8.57;;;4.25;;
29196;SDS011;62796;42.654;23.316;2023-04-15T02:34:48;9.70;;;3.65;;
29196;SDS011;62796;42.654;23.316;2023-04-15T02:37:14;8.18;;;4.50;;
29196;SDS011;62796;42.654;23.316;2023-04-15T02:39:40;11.65;;;5.00;;
29196;SDS011;62796;42.654;23.316;2023-04-15T02:42:05;10.32;;;5.22;;
29196;SDS011;62796;42.654;23.316;2023-04-15T02:44:31;10.45;;;5.88;;
29196;SDS011;62796;42.654;23.316;2023-04-15T02:46:58;7.80;;;4.55;;
29196;SDS011;62796;42.654;23.316;2023-04-15T02:49:23;7.32;;;4.10;;
29196;SDS011;62796;42.654;23.316;2023-04-15T02:51:49;7.70;;;4.20;;
29196;SDS011;62796;42.654;23.316;2023-04-15T02:54:16;8.77;;;4.38;;
29196;SDS011;62796;42.654;23.316;2023-04-15T02:56:43;10.45;;;4.75;;
29196;SDS011;62796;42.654;23.316;2023-04-15T02:59:08;10.95;;;5.68;;
29196;SDS011;62796;42.654;23.316;2023-04-15T03:01:34;8.43;;;5.10;;
29196;SDS011;62796;42.654;23.316;2023-04-15T03:03:59;13.00;;;5.72;;
29196;SDS011;62796;42.654;23.316;2023-04-15T03:06:25;14.52;;;6.93;;
29196;SDS011;62796;42.654;23.316;2023-04-15T03:08:50;19.00;;;9.38;;
29196;SDS011;62796;42.654;23.316;2023-04-15T03:11:15;33.45;;;16.52;;
29196;SDS011;62796;42.654;23.316;2023-04-15T03:13:41;42.50;;;18.40;;
29196;SDS011;62796;42.654;23.316;2023-04-15T03:16:07;25.70;;;11.05;;
29196;SDS011;62796;42.654;23.316;2023-04-15T03:18:33;18.77;;;9.93;;
29196;SDS011;62796;42.654;23.316;2023-04-15T03:20:59;17.45;;;8.32;;
29196;SDS011;62796;42.654;23.316;2023-04-15T03:23:25;15.07;;;8.07;;
29196;SDS011;62796;42.654;23.316;2023-04-15T03:25:50;10.48;;;5.97;;
29196;SDS011;62796;42.654;23.316;2023-04-15T03:28:15;9.77;;;6.18;;
29196;SDS011;62796;42.654;23.316;2023-04-15T03:30:41;9.82;;;6.72;;
29196;SDS011;62796;42.654;23.316;2023-04-15T03:33:06;13.13;;;7.85;;
29196;SDS011;62796;42.654;23.316;2023-04-15T03:35:32;14.18;;;6.93;;
29196;SDS011;62796;42.654;23.316;2023-04-15T03:37:58;9.98;;;6.35;;
29196;SDS011;62796;42.654;23.316;2023-04-15T03:40:24;14.18;;;7.88;;
29196;SDS011;62796;42.654;23.316;2023-04-15T03:42:49;16.02;;;8.45;;
29196;SDS011;62796;42.654;23.316;2023-04-15T03:45:15;16.77;;;7.90;;
29196;SDS011;62796;42.654;23.316;2023-04-15T03:47:40;13.48;;;7.25;;
29196;SDS011;62796;42.654;23.316;2023-04-15T03:50:06;13.27;;;7.63;;
29196;SDS011;62796;42.654;23.316;2023-04-15T03:52:32;13.73;;;7.35;;
29196;SDS011;62796;42.654;23.316;2023-04-15T03:54:57;12.52;;;7.63;;
29196;SDS011;62796;42.654;23.316;2023-04-15T03:57:23;16.23;;;7.72;;
29196;SDS011;62796;42.654;23.316;2023-04-15T03:59:48;12.77;;;7.53;;
29196;SDS011;62796;42.654;23.316;2023-04-15T04:02:14;11.70;;;7.22;;
29196;SDS011;62796;42.654;23.316;2023-04-15T04:04:39;14.80;;;7.38;;
29196;SDS011;62796;42.654;23.316;2023-04-15T04:07:04;16.58;;;8.25;;
29196;SDS011;62796;42.654;23.316;2023-04-15T04:09:30;15.15;;;8.20;;
29196;SDS011;62796;42.654;23.316;2023-04-15T04:11:56;17.55;;;9.15;;
29196;SDS011;62796;42.654;23.316;2023-04-15T04:14:21;16.63;;;9.63;;
29196;SDS011;62796;42.654;23.316;2023-04-15T04:16:53;16.35;;;8.70;;
29196;SDS011;62796;42.654;23.316;2023-04-15T04:19:18;15.15;;;8.27;;
29196;SDS011;62796;42.654;23.316;2023-04-15T04:21:44;15.98;;;8.85;;
29196;SDS011;62796;42.654;23.316;2023-04-15T04:24:09;11.18;;;7.30;;
29196;SDS011;62796;42.654;23.316;2023-04-15T04:26:36;15.88;;;8.07;;
29196;SDS011;62796;42.654;23.316;2023-04-15T04:29:01;13.15;;;7.25;;
29196;SDS011;62796;42.654;23.316;2023-04-15T04:31:27;14.35;;;7.40;;
29196;SDS011;62796;42.654;23.316;2023-04-15T04:33:52;12.10;;;7.85;;
29196;SDS011;62796;42.654;23.316;2023-04-15T04:36:17;13.93;;;7.40;;
29196;SDS011;62796;42.654;23.316;2023-04-15T04:38:43;12.82;;;7.43;;
29196;SDS011;62796;42.654;23.316;2023-04-15T04:41:08;12.65;;;7.30;;
29196;SDS011;62796;42.654;23.316;2023-04-15T04:43:34;13.65;;;7.00;;
29196;SDS011;62796;42.654;23.316;2023-04-15T04:45:59;16.50;;;7.95;;
29196;SDS011;62796;42.654;23.316;2023-04-15T04:48:24;12.25;;;7.45;;
29196;SDS011;62796;42.654;23.316;2023-04-15T04:50:51;11.52;;;7.03;;
29196;SDS011;62796;42.654;23.316;2023-04-15T04:53:16;15.70;;;10.18;;
29196;SDS011;62796;42.654;23.316;2023-04-15T04:55:42;16.15;;;9.88;;
29196;SDS011;62796;42.654;23.316;2023-04-15T04:58:07;19.33;;;9.73;;
29196;SDS011;62796;42.654;23.316;2023-04-15T05:00:33;17.00;;;9.48;;
29196;SDS011;62796;42.654;23.316;2023-04-15T05:02:58;16.88;;;9.93;;
29196;SDS011;62796;42.654;23.316;2023-04-15T05:05:24;14.85;;;9.95;;
29196;SDS011;62796;42.654;23.316;2023-04-15T05:07:50;14.35;;;9.13;;
29196;SDS011;62796;42.654;23.316;2023-04-15T05:10:15;18.13;;;9.02;;
29196;SDS011;62796;42.654;23.316;2023-04-15T05:12:42;18.75;;;10.32;;
29196;SDS011;62796;42.654;23.316;2023-04-15T05:15:08;16.35;;;9.38;;
29196;SDS011;62796;42.654;23.316;2023-04-15T05:17:34;18.67;;;9.40;;
29196;SDS011;62796;42.654;23.316;2023-04-15T05:19:59;13.57;;;9.10;;
29196;SDS011;62796;42.654;23.316;2023-04-15T05:22:26;18.17;;;9.70;;
29196;SDS011;62796;42.654;23.316;2023-04-15T05:24:51;17.67;;;9.60;;
29196;SDS011;62796;42.654;23.316;2023-04-15T05:27:16;14.50;;;8.60;;
29196;SDS011;62796;42.654;23.316;2023-04-15T05:29:43;13.52;;;8.30;;
29196;SDS011;62796;42.654;23.316;2023-04-15T05:32:08;13.02;;;8.25;;
29196;SDS011;62796;42.654;23.316;2023-04-15T05:34:34;17.20;;;8.35;;
29196;SDS011;62796;42.654;23.316;2023-04-15T05:37:00;13.95;;;8.52;;
29196;SDS011;62796;42.654;23.316;2023-04-15T05:39:26;14.15;;;8.68;;
29196;SDS011;62796;42.654;23.316;2023-04-15T05:41:51;15.50;;;8.20;;
29196;SDS011;62796;42.654;23.316;2023-04-15T05:44:17;13.68;;;8.48;;
29196;SDS011;62796;42.654;23.316;2023-04-15T05:46:42;14.68;;;8.50;;
29196;SDS011;62796;42.654;23.316;2023-04-15T05:49:08;14.13;;;7.45;;
29196;SDS011;62796;42.654;23.316;2023-04-15T05:51:33;12.13;;;6.57;;
29196;SDS011;62796;42.654;23.316;2023-04-15T05:53:58;10.02;;;6.30;;
29196;SDS011;62796;42.654;23.316;2023-04-15T05:56:24;11.80;;;6.18;;
29196;SDS011;62796;42.654;23.316;2023-04-15T05:58:51;9.18;;;6.72;;
29196;SDS011;62796;42.654;23.316;2023-04-15T06:01:16;14.52;;;6.00;;
29196;SDS011;62796;42.654;23.316;2023-04-15T06:03:42;9.93;;;5.72;;
29196;SDS011;62796;42.654;23.316;2023-04-15T06:06:07;9.88;;;6.18;;
29196;SDS011;62796;42.654;23.316;2023-04-15T06:08:33;13.73;;;7.03;;
29196;SDS011;62796;42.654;23.316;2023-04-15T06:10:59;12.52;;;7.30;;
29196;SDS011;62796;42.654;23.316;2023-04-15T06:13:25;12.40;;;7.28;;
29196;SDS011;62796;42.654;23.316;2023-04-15T06:15:51;15.93;;;7.32;;
29196;SDS011;62796;42.654;23.316;2023-04-15T06:18:16;9.77;;;6.28;;
29196;SDS011;62796;42.654;23.316;2023-04-15T06:20:42;10.80;;;6.10;;
29196;SDS011;62796;42.654;23.316;2023-04-15T06:23:07;9.73;;;5.97;;
29196;SDS011;62796;42.654;23.316;2023-04-15T06:25:32;9.70;;;5.82;;
29196;SDS011;62796;42.654;23.316;2023-04-15T06:27:58;8.93;;;5.38;;
29196;SDS011;62796;42.654;23.316;2023-04-15T06:30:23;10.68;;;5.30;;
29196;SDS011;62796;42.654;23.316;2023-04-15T06:32:48;9.77;;;5.47;;
29196;SDS011;62796;42.654;23.316;2023-04-15T06:35:14;11.30;;;6.00;;
29196;SDS011;62796;42.654;23.316;2023-04-15T06:37:40;11.27;;;5.05;;
29196;SDS011;62796;42.654;23.316;2023-04-15T06:40:05;11.05;;;4.75;;
29196;SDS011;62796;42.654;23.316;2023-04-15T06:42:32;9.57;;;4.95;;
29196;SDS011;62796;42.654;23.316;2023-04-15T06:44:58;9.13;;;5.35;;
29196;SDS011;62796;42.654;23.316;2023-04-15T06:47:23;11.77;;;5.35;;
29196;SDS011;62796;42.654;23.316;2023-04-15T06:49:48;10.82;;;5.25;;
29196;SDS011;62796;42.654;23.316;2023-04-15T06:52:14;8.27;;;5.43;;
29196;SDS011;62796;42.654;23.316;2023-04-15T06:54:40;12.10;;;5.63;;
29196;SDS011;62796;42.654;23.316;2023-04-15T06:57:06;9.52;;;5.50;;
29196;SDS011;62796;42.654;23.316;2023-04-15T06:59:33;10.38;;;6.03;;
29196;SDS011;62796;42.654;23.316;2023-04-15T07:01:58;11.40;;;5.80;;
29196;SDS011;62796;42.654;23.316;2023-04-15T07:04:24;11.80;;;5.60;;
29196;SDS011;62796;42.654;23.316;2023-04-15T07:06:49;7.93;;;5.57;;
29196;SDS011;62796;42.654;23.316;2023-04-15T07:09:15;8.27;;;5.32;;
29196;SDS011;62796;42.654;23.316;2023-04-15T07:11:40;9.63;;;5.38;;
29196;SDS011;62796;42.654;23.316;2023-04-15T07:14:06;9.93;;;6.50;;
29196;SDS011;62796;42.654;23.316;2023-04-15T07:16:31;12.25;;;6.18;;
29196;SDS011;62796;42.654;23.316;2023-04-15T07:18:57;9.27;;;5.68;;
29196;SDS011;62796;42.654;23.316;2023-04-15T07:21:22;10.60;;;5.22;;
29196;SDS011;62796;42.654;23.316;2023-04-15T07:23:48;9.05;;;5.32;;
29196;SDS011;62796;42.654;23.316;2023-04-15T07:26:14;8.25;;;5.60;;
29196;SDS011;62796;42.654;23.316;2023-04-15T07:28:39;9.10;;;5.32;;
29196;SDS011;62796;42.654;23.316;2023-04-15T07:31:05;9.82;;;5.40;;
29196;SDS011;62796;42.654;23.316;2023-04-15T07:33:31;8.63;;;4.78;;
29196;SDS011;62796;42.654;23.316;2023-04-15T07:35:56;7.65;;;4.65;;
29196;SDS011;62796;42.654;23.316;2023-04-15T07:38:22;8.35;;;4.97;;
29196;SDS011;62796;42.654;23.316;2023-04-15T07:40:47;9.30;;;4.50;;
29196;SDS011;62796;42.654;23.316;2023-04-15T07:43:13;8.77;;;4.60;;
29196;SDS011;62796;42.654;23.316;2023-04-15T07:45:39;8.32;;;4.10;;
29196;SDS011;62796;42.654;23.316;2023-04-15T07:48:05;7.25;;;3.97;;
29196;SDS011;62796;42.654;23.316;2023-04-15T07:50:30;11.82;;;4.03;;
29196;SDS011;62796;42.654;23.316;2023-04-15T07:52:56;9.32;;;3.97;;
29196;SDS011;62796;42.654;23.316;2023-04-15T07:55:21;8.02;;;4.15;;
29196;SDS011;62796;42.654;23.316;2023-04-15T07:57:48;6.78;;;3.78;;
29196;SDS011;62796;42.654;23.316;2023-04-15T08:00:13;5.28;;;4.00;;
29196;SDS011;62796;42.654;23.316;2023-04-15T08:02:40;6.80;;;3.95;;
29196;SDS011;62796;42.654;23.316;2023-04-15T08:05:06;7.20;;;3.75;;
29196;SDS011;62796;42.654;23.316;2023-04-15T08:07:33;7.18;;;3.30;;
29196;SDS011;62796;42.654;23.316;2023-04-15T08:09:59;7.97;;;3.25;;
29196;SDS011;62796;42.654;23.316;2023-04-15T08:12:24;5.50;;;3.70;;
29196;SDS011;62796;42.654;23.316;2023-04-15T08:14:49;8.05;;;3.40;;
29196;SDS011;62796;42.654;23.316;2023-04-15T08:17:16;8.55;;;3.47;;
29196;SDS011;62796;42.654;23.316;2023-04-15T08:19:41;8.82;;;3.70;;
29196;SDS011;62796;42.654;23.316;2023-04-15T08:22:07;6.47;;;3.08;;
29196;SDS011;62796;42.654;23.316;2023-04-15T08:24:32;4.95;;;3.13;;
29196;SDS011;62796;42.654;23.316;2023-04-15T08:26:58;8.30;;;3.42;;
29196;SDS011;62796;42.654;23.316;2023-04-15T08:29:24;6.00;;;3.53;;
29196;SDS011;62796;42.654;23.316;2023-04-15T08:31:49;4.68;;;2.53;;
29196;SDS011;62796;42.654;23.316;2023-04-15T08:34:15;5.28;;;3.30;;
29196;SDS011;62796;42.654;23.316;2023-04-15T08:36:41;6.85;;;3.08;;
29196;SDS011;62796;42.654;23.316;2023-04-15T08:39:07;4.63;;;2.78;;
29196;SDS011;62796;42.654;23.316;2023-04-15T08:44:04;4.88;;;2.72;;
29196;SDS011;62796;42.654;23.316;2023-04-15T08:46:31;6.32;;;1.98;;
29196;SDS011;62796;42.654;23.316;2023-04-15T08:48:58;4.35;;;2.20;;
29196;SDS011;62796;42.654;23.316;2023-04-15T08:51:24;5.65;;;1.95;;
29196;SDS011;62796;42.654;23.316;2023-04-15T08:53:50;5.60;;;1.50;;
29196;SDS011;62796;42.654;23.316;2023-04-15T08:56:17;2.60;;;1.50;;
29196;SDS011;62796;42.654;23.316;2023-04-15T08:58:44;4.32;;;1.40;;
29196;SDS011;62796;42.654;23.316;2023-04-15T09:01:11;3.65;;;1.55;;
29196;SDS011;62796;42.654;23.316;2023-04-15T09:03:37;1.83;;;0.90;;
29196;SDS011;62796;42.654;23.316;2023-04-15T09:06:03;2.95;;;1.08;;
29196;SDS011;62796;42.654;23.316;2023-04-15T09:08:30;5.85;;;1.38;;
29196;SDS011;62796;42.654;23.316;2023-04-15T09:10:55;4.35;;;2.22;;
29196;SDS011;62796;42.654;23.316;2023-04-15T09:13:21;6.95;;;2.35;;
29196;SDS011;62796;42.654;23.316;2023-04-15T09:15:46;7.32;;;2.38;;
29196;SDS011;62796;42.654;23.316;2023-04-15T09:18:13;4.35;;;2.38;;
29196;SDS011;62796;42.654;23.316;2023-04-15T09:20:52;5.28;;;2.50;;
29196;SDS011;62796;42.654;23.316;2023-04-15T09:23:17;6.65;;;2.70;;
29196;SDS011;62796;42.654;23.316;2023-04-15T09:25:43;5.43;;;2.80;;
29196;SDS011;62796;42.654;23.316;2023-04-15T09:28:10;5.97;;;2.97;;
29196;SDS011;62796;42.654;23.316;2023-04-15T09:30:35;12.40;;;3.15;;
29196;SDS011;62796;42.654;23.316;2023-04-15T09:33:02;5.65;;;2.70;;
29196;SDS011;62796;42.654;23.316;2023-04-15T09:35:32;4.88;;;2.50;;
29196;SDS011;62796;42.654;23.316;2023-04-15T09:38:03;5.30;;;2.15;;
29196;SDS011;62796;42.654;23.316;2023-04-15T09:40:33;3.25;;;1.75;;
29196;SDS011;62796;42.654;23.316;2023-04-15T09:42:59;1.65;;;0.63;;
29196;SDS011;62796;42.654;23.316;2023-04-15T09:45:29;6.45;;;4.38;;
29196;SDS011;62796;42.654;23.316;2023-04-15T09:47:59;18.48;;;15.10;;
29196;SDS011;62796;42.654;23.316;2023-04-15T09:50:40;1.55;;;1.25;;
29196;SDS011;62796;42.654;23.316;2023-04-15T09:53:08;3.58;;;0.93;;
29196;SDS011;62796;42.654;23.316;2023-04-15T09:55:35;2.38;;;0.90;;
29196;SDS011;62796;42.654;23.316;2023-04-15T09:58:01;2.58;;;0.70;;
29196;SDS011;62796;42.654;23.316;2023-04-15T10:00:27;3.38;;;0.80;;
29196;SDS011;62796;42.654;23.316;2023-04-15T10:02:53;1.30;;;0.60;;
29196;SDS011;62796;42.654;23.316;2023-04-15T10:05:19;4.20;;;0.85;;
29196;SDS011;62796;42.654;23.316;2023-04-15T10:07:45;2.38;;;0.80;;
29196;SDS011;62796;42.654;23.316;2023-04-15T10:10:11;3.38;;;1.17;;
29196;SDS011;62796;42.654;23.316;2023-04-15T10:12:37;3.35;;;1.05;;
29196;SDS011;62796;42.654;23.316;2023-04-15T10:15:05;4.22;;;1.13;;
29196;SDS011;62796;42.654;23.316;2023-04-15T10:17:36;2.65;;;0.77;;
29196;SDS011;62796;42.654;23.316;2023-04-15T10:20:03;3.88;;;1.00;;
29196;SDS011;62796;42.654;23.316;2023-04-15T10:22:29;3.38;;;0.90;;
29196;SDS011;62796;42.654;23.316;2023-04-15T10:24:56;2.92;;;0.70;;
29196;SDS011;62796;42.654;23.316;2023-04-15T10:27:23;2.08;;;0.82;;
29196;SDS011;62796;42.654;23.316;2023-04-15T10:29:49;1.42;;;1.00;;
29196;SDS011;62796;42.654;23.316;2023-04-15T10:32:16;4.45;;;1.08;;
29196;SDS011;62796;42.654;23.316;2023-04-15T10:34:49;4.05;;;1.10;;
29196;SDS011;62796;42.654;23.316;2023-04-15T10:37:20;2.60;;;0.90;;
29196;SDS011;62796;42.654;23.316;2023-04-15T10:39:46;4.32;;;1.42;;
29196;SDS011;62796;42.654;23.316;2023-04-15T10:42:13;2.78;;;0.88;;
29196;SDS011;62796;42.654;23.316;2023-04-15T10:44:40;1.88;;;0.88;;
29196;SDS011;62796;42.654;23.316;2023-04-15T10:47:12;2.03;;;1.00;;
29196;SDS011;62796;42.654;23.316;2023-04-15T10:49:42;4.15;;;1.00;;
29196;SDS011;62796;42.654;23.316;2023-04-15T10:52:13;2.45;;;0.93;;
29196;SDS011;62796;42.654;23.316;2023-04-15T10:54:40;2.20;;;0.60;;
29196;SDS011;62796;42.654;23.316;2023-04-15T11:08:07;2.93;;;0.93;;
29196;SDS011;62796;42.654;23.316;2023-04-15T11:12:59;0.88;;;0.52;;
29196;SDS011;62796;42.654;23.316;2023-04-15T11:15:34;1.80;;;0.60;;
29196;SDS011;62796;42.654;23.316;2023-04-15T11:18:08;1.88;;;0.70;;
29196;SDS011;62796;42.654;23.316;2023-04-15T11:20:37;3.70;;;1.20;;
29196;SDS011;62796;42.654;23.316;2023-04-15T11:23:03;2.10;;;0.85;;
29196;SDS011;62796;42.654;23.316;2023-04-15T11:25:30;2.70;;;1.15;;
29196;SDS011;62796;42.654;23.316;2023-04-15T11:27:57;3.22;;;1.05;;
29196;SDS011;62796;42.654;23.316;2023-04-15T11:30:25;3.63;;;0.90;;
29196;SDS011;62796;42.654;23.316;2023-04-15T11:32:53;2.05;;;0.90;;
29196;SDS011;62796;42.654;23.316;2023-04-15T11:35:21;4.05;;;1.15;;
29196;SDS011;62796;42.654;23.316;2023-04-15T11:37:47;2.50;;;0.70;;
29196;SDS011;62796;42.654;23.316;2023-04-15T11:40:13;1.08;;;0.50;;
29196;SDS011;62796;42.654;23.316;2023-04-15T11:42:39;1.20;;;0.73;;
29196;SDS011;62796;42.654;23.316;2023-04-15T11:45:08;2.10;;;1.00;;
29196;SDS011;62796;42.654;23.316;2023-04-15T11:47:38;3.77;;;0.70;;
29196;SDS011;62796;42.654;23.316;2023-04-15T11:52:55;2.38;;;0.80;;
29196;SDS011;62796;42.654;23.316;2023-04-15T11:55:22;2.72;;;0.75;;
29196;SDS011;62796;42.654;23.316;2023-04-15T11:58:34;2.33;;;0.50;;
29196;SDS011;62796;42.654;23.316;2023-04-15T12:00:34;1.70;;;0.70;;
29196;SDS011;62796;42.654;23.316;2023-04-15T12:03:13;2.80;;;0.93;;
29196;SDS011;62796;42.654;23.316;2023-04-15T12:11:26;1.73;;;0.75;;
29196;SDS011;62796;42.654;23.316;2023-04-15T12:16:27;2.55;;;0.98;;
29196;SDS011;62796;42.654;23.316;2023-04-15T12:18:54;2.85;;;0.98;;
29196;SDS011;62796;42.654;23.316;2023-04-15T12:21:22;3.35;;;0.77;;
29196;SDS011;62796;42.654;23.316;2023-04-15T12:26:18;1.05;;;0.57;;
29196;SDS011;62796;42.654;23.316;2023-04-15T12:29:00;1.70;;;1.00;;
29196;SDS011;62796;42.654;23.316;2023-04-15T12:31:27;4.28;;;0.98;;
29196;SDS011;62796;42.654;23.316;2023-04-15T12:33:56;3.35;;;0.90;;
29196;SDS011;62796;42.654;23.316;2023-04-15T12:36:22;2.60;;;0.90;;
29196;SDS011;62796;42.654;23.316;2023-04-15T12:38:48;2.40;;;0.93;;
29196;SDS011;62796;42.654;23.316;2023-04-15T12:41:14;4.38;;;1.15;;
29196;SDS011;62796;42.654;23.316;2023-04-15T12:43:39;2.47;;;0.75;;
29196;SDS011;62796;42.654;23.316;2023-04-15T12:46:05;2.40;;;0.80;;
29196;SDS011;62796;42.654;23.316;2023-04-15T12:48:32;3.03;;;1.15;;
29196;SDS011;62796;42.654;23.316;2023-04-15T12:50:58;4.40;;;0.80;;
29196;SDS011;62796;42.654;23.316;2023-04-15T12:53:23;1.67;;;0.60;;
29196;SDS011;62796;42.654;23.316;2023-04-15T12:55:49;3.38;;;0.70;;
29196;SDS011;62796;42.654;23.316;2023-04-15T12:58:14;5.22;;;1.25;;
29196;SDS011;62796;42.654;23.316;2023-04-15T13:00:39;1.52;;;0.70;;
29196;SDS011;62796;42.654;23.316;2023-04-15T13:03:05;3.75;;;0.90;;
29196;SDS011;62796;42.654;23.316;2023-04-15T13:05:30;3.58;;;1.90;;
29196;SDS011;62796;42.654;23.316;2023-04-15T13:07:56;3.10;;;0.90;;
29196;SDS011;62796;42.654;23.316;2023-04-15T13:10:21;2.13;;;0.98;;
29196;SDS011;62796;42.654;23.316;2023-04-15T13:12:50;2.80;;;0.70;;
29196;SDS011;62796;42.654;23.316;2023-04-15T13:15:17;2.08;;;1.00;;
29196;SDS011;62796;42.654;23.316;2023-04-15T13:17:45;2.20;;;1.20;;
29196;SDS011;62796;42.654;23.316;2023-04-15T13:20:10;4.50;;;1.13;;
29196;SDS011;62796;42.654;23.316;2023-04-15T13:22:36;2.15;;;0.90;;
29196;SDS011;62796;42.654;23.316;2023-04-15T13:25:01;1.98;;;0.68;;
29196;SDS011;62796;42.654;23.316;2023-04-15T13:27:27;2.20;;;0.80;;
29196;SDS011;62796;42.654;23.316;2023-04-15T13:29:53;1.20;;;0.50;;
29196;SDS011;62796;42.654;23.316;2023-04-15T13:32:18;1.63;;;0.70;;
29196;SDS011;62796;42.654;23.316;2023-04-15T13:34:45;1.77;;;0.90;;
29196;SDS011;62796;42.654;23.316;2023-04-15T13:37:10;3.20;;;0.88;;
29196;SDS011;62796;42.654;23.316;2023-04-15T13:39:36;2.08;;;1.00;;
29196;SDS011;62796;42.654;23.316;2023-04-15T13:42:01;2.25;;;1.00;;
29196;SDS011;62796;42.654;23.316;2023-04-15T13:44:27;2.55;;;0.90;;
29196;SDS011;62796;42.654;23.316;2023-04-15T13:46:52;3.65;;;0.90;;
29196;SDS011;62796;42.654;23.316;2023-04-15T13:49:18;2.28;;;0.77;;
29196;SDS011;62796;42.654;23.316;2023-04-15T13:51:43;2.25;;;0.88;;
29196;SDS011;62796;42.654;23.316;2023-04-15T13:54:09;1.58;;;0.75;;
29196;SDS011;62796;42.654;23.316;2023-04-15T13:56:34;1.35;;;0.80;;
29196;SDS011;62796;42.654;23.316;2023-04-15T13:59:00;3.60;;;0.90;;
29196;SDS011;62796;42.654;23.316;2023-04-15T14:01:26;0.85;;;0.52;;
29196;SDS011;62796;42.654;23.316;2023-04-15T14:03:52;2.08;;;0.80;;
29196;SDS011;62796;42.654;23.316;2023-04-15T14:06:17;2.25;;;0.70;;
29196;SDS011;62796;42.654;23.316;2023-04-15T14:08:43;2.10;;;0.70;;
29196;SDS011;62796;42.654;23.316;2023-04-15T14:11:08;4.60;;;0.98;;
29196;SDS011;62796;42.654;23.316;2023-04-15T14:13:34;1.42;;;0.68;;
29196;SDS011;62796;42.654;23.316;2023-04-15T14:16:00;1.80;;;0.70;;
29196;SDS011;62796;42.654;23.316;2023-04-15T14:18:25;2.85;;;0.73;;
29196;SDS011;62796;42.654;23.316;2023-04-15T14:20:51;3.30;;;0.75;;
29196;SDS011;62796;42.654;23.316;2023-04-15T14:23:16;1.77;;;0.60;;
29196;SDS011;62796;42.654;23.316;2023-04-15T14:25:42;1.15;;;0.70;;
29196;SDS011;62796;42.654;23.316;2023-04-15T14:28:08;4.57;;;1.08;;
29196;SDS011;62796;42.654;23.316;2023-04-15T14:30:33;2.70;;;0.90;;
29196;SDS011;62796;42.654;23.316;2023-04-15T14:32:59;3.95;;;0.82;;
29196;SDS011;62796;42.654;23.316;2023-04-15T14:35:24;2.30;;;0.70;;
29196;SDS011;62796;42.654;23.316;2023-04-15T14:37:54;1.42;;;0.60;;
29196;SDS011;62796;42.654;23.316;2023-04-15T14:40:20;1.92;;;0.77;;
29196;SDS011;62796;42.654;23.316;2023-04-15T14:42:45;1.05;;;0.75;;
29196;SDS011;62796;42.654;23.316;2023-04-15T14:45:11;1.98;;;0.82;;
29196;SDS011;62796;42.654;23.316;2023-04-15T14:47:36;2.22;;;0.80;;
29196;SDS011;62796;42.654;23.316;2023-04-15T14:50:02;2.42;;;0.85;;
29196;SDS011;62796;42.654;23.316;2023-04-15T14:52:29;2.30;;;1.23;;